Time;durP1;ratioP1;P1;durP2;ratioP2;P2;SDS_P1;SDS_P2;PMS_P1;PMS_P2;Temp;Humidity;BMP_temperature;BMP_pressure;BME280_temperature;BME280_humidity;BME280_pressure;Samples;Min_cycle;Max_cycle;Signal;HPM_P1;HPM_P2
2023/10/29 00:00:44;;;;;;;;;;;;;;;12.26;99.10;98882.31;4955347;29;19925;-71
2023/10/29 00:03:47;;;;;;;;;;;;;;;12.26;100.00;98877.06;4955033;29;20325;-71
2023/10/29 00:06:50;;;;;;;;;;;;;;;12.30;100.00;98867.16;4954883;29;19981;-71
2023/10/29 00:09:53;;;;;;;;;;;;;;;12.19;100.00;98854.97;4954863;29;19929;-71
2023/10/29 00:12:56;;;;;;;;;;;;;;;12.18;100.00;98855.94;4951691;29;20012;-71
2023/10/29 00:15:59;;;;;;;;;;;;;;;12.18;100.00;98857.72;4943056;29;20601;-71
2023/10/29 00:19:02;;;;;;;;;;;;;;;12.26;100.00;98850.88;4954947;29;19926;-71
2023/10/29 00:22:06;;;;;;;;;;;;;;;12.24;100.00;98852.78;4954774;29;20494;-71
2023/10/29 00:25:10;;;;;;;;;;;;;;;12.20;100.00;98856.63;4954813;29;19926;-72
2023/10/29 00:28:13;;;;;;;;;;;;;;;12.16;100.00;98849.19;4954277;29;19926;-72
2023/10/29 00:31:15;;;;;;;;;;;;;;;12.22;100.00;98859.09;4940920;29;19993;-72
2023/10/29 00:34:18;;;;;;;;;;;;;;;12.25;100.00;98849.22;4954423;29;20389;-72
2023/10/29 00:37:22;;;;;;;;;;;;;;;12.21;100.00;98868.75;4942476;29;19973;-71
2023/10/29 00:40:30;;;;;;;;;;;;;;;12.28;100.00;98858.59;4941921;29;19973;-71
2023/10/29 00:43:43;;;;;;;;;;;;;;;12.25;100.00;98856.22;4953338;28;19926;-71
2023/10/29 00:46:46;;;;;;;;;;;;;;;12.27;100.00;98852.50;4944691;29;20366;-72
2023/10/29 00:49:49;;;;;;;;;;;;;;;12.23;100.00;98851.13;4958089;29;19933;-72
2023/10/29 00:52:52;;;;;;;;;;;;;;;12.33;100.00;98861.66;4957968;29;20403;-71
2023/10/29 00:55:55;;;;;;;;;;;;;;;12.37;99.69;98863.03;4956678;29;20405;-71
2023/10/29 00:58:59;;;;;;;;;;;;;;;12.45;100.00;98870.25;4957925;29;19925;-71
2023/10/29 01:02:02;;;;;;;;;;;;;;;12.40;99.16;98860.16;4957819;29;20466;-71
2023/10/29 01:05:05;;;;;;;;;;;;;;;12.43;99.97;98864.31;4957791;29;19972;-71
2023/10/29 01:08:08;;;;;;;;;;;;;;;12.46;99.67;98856.19;4959233;28;19937;-71
2023/10/29 01:11:11;;;;;;;;;;;;;;;12.37;100.00;98825.53;4965039;28;20408;-71
2023/10/29 01:14:15;;;;;;;;;;;;;;;12.40;97.46;98835.75;4977028;28;19925;-71
2023/10/29 01:17:19;;;;;;;;;;;;;;;12.49;96.84;98830.53;4976887;28;19981;-71
2023/10/29 01:20:23;;;;;;;;;;;;;;;12.51;97.41;98812.06;4976863;28;19924;-71
2023/10/29 01:23:28;;;;;;;;;;;;;;;12.53;96.83;98815.34;4964853;28;19925;-71
2023/10/29 01:26:40;;;;;;;;;;;;;;;12.63;91.69;98795.22;4976699;28;19934;-72
2023/10/29 01:29:46;;;;;;;;;;;;;;;12.70;94.92;98788.50;4954257;28;20012;-71
2023/10/29 01:32:50;;;;;;;;;;;;;;;12.76;92.89;98785.31;4975212;28;19987;-71
2023/10/29 01:35:53;;;;;;;;;;;;;;;12.75;90.83;98774.97;4963568;28;19973;-71
2023/10/29 01:38:56;;;;;;;;;;;;;;;12.73;92.95;98769.88;4975287;28;19925;-71
2023/10/29 01:41:59;;;;;;;;;;;;;;;12.71;93.00;98756.06;4964210;28;19925;-71
2023/10/29 01:45:03;;;;;;;;;;;;;;;12.66;94.87;98737.25;4976247;28;20452;-71
2023/10/29 01:48:06;;;;;;;;;;;;;;;12.77;93.21;98745.00;4964627;28;20294;-71
2023/10/29 01:51:09;;;;;;;;;;;;;;;12.66;94.45;98733.81;4976044;28;20281;-71
2023/10/29 01:54:13;;;;;;;;;;;;;;;12.54;96.08;98738.38;4976304;28;19925;-71
2023/10/29 01:57:15;;;;;;;;;;;;;;;12.57;97.44;98749.41;4976373;28;19941;-71
2023/10/29 02:00:19;;;;;;;;;;;;;;;12.45;96.98;98784.59;4964255;28;19961;-71
2023/10/29 02:03:47;;;;;;;;;;;;;;;12.45;97.36;98807.34;4976076;28;20424;-71
2023/10/29 02:06:50;;;;;;;;;;;;;;;12.48;97.39;98813.16;4963932;28;19930;-71
2023/10/29 02:09:53;;;;;;;;;;;;;;;12.46;99.08;98824.72;4975761;28;20402;-71
2023/10/29 02:12:56;;;;;;;;;;;;;;;12.50;100.00;98832.19;4975826;28;19952;-71
2023/10/29 02:16:00;;;;;;;;;;;;;;;12.54;100.00;98832.75;4963862;28;19933;-71
2023/10/29 02:19:03;;;;;;;;;;;;;;;12.46;100.00;98841.28;4975767;28;19941;-71
2023/10/29 02:22:06;;;;;;;;;;;;;;;12.29;100.00;98837.50;4963776;28;19925;-71
2023/10/29 02:25:10;;;;;;;;;;;;;;;12.23;100.00;98827.53;4975672;28;19944;-71
2023/10/29 02:28:12;;;;;;;;;;;;;;;12.32;100.00;98829.38;4975410;28;19994;-71
2023/10/29 02:31:17;;;;;;;;;;;;;;;12.33;100.00;98819.72;4975578;28;20341;-71
2023/10/29 02:34:20;;;;;;;;;;;;;;;12.45;100.00;98812.59;4963557;28;19924;-71
2023/10/29 02:37:23;;;;;;;;;;;;;;;12.48;100.00;98818.38;4975328;28;19965;-71
2023/10/29 02:40:26;;;;;;;;;;;;;;;12.42;100.00;98812.84;4975422;28;19972;-71
2023/10/29 02:43:29;;;;;;;;;;;;;;;12.46;100.00;98801.13;4975662;28;19945;-71
2023/10/29 02:46:31;;;;;;;;;;;;;;;12.14;100.00;98794.28;4975180;28;19968;-71
2023/10/29 02:49:34;;;;;;;;;;;;;;;12.15;100.00;98782.81;4975532;28;19925;-71
2023/10/29 02:52:37;;;;;;;;;;;;;;;12.25;100.00;98769.75;4975053;28;20433;-71
2023/10/29 02:55:41;;;;;;;;;;;;;;;12.09;100.00;98770.25;4963126;28;20013;-71
2023/10/29 02:58:44;;;;;;;;;;;;;;;12.09;100.00;98765.00;4975099;28;20420;-71
2023/10/29 03:01:47;;;;;;;;;;;;;;;12.23;100.00;98769.91;4963115;28;19965;-71
2023/10/29 03:04:50;;;;;;;;;;;;;;;12.19;100.00;98768.50;4974998;28;19929;-71
2023/10/29 03:07:53;;;;;;;;;;;;;;;12.34;100.00;98754.06;4974599;28;20394;-71
2023/10/29 03:10:56;;;;;;;;;;;;;;;12.32;100.00;98745.50;4962775;28;19974;-71
2023/10/29 03:13:59;;;;;;;;;;;;;;;12.15;100.00;98761.84;4974864;28;19925;-71
2023/10/29 03:17:02;;;;;;;;;;;;;;;12.19;100.00;98755.41;4974830;28;20381;-71
2023/10/29 03:20:06;;;;;;;;;;;;;;;12.15;100.00;98753.19;4974814;28;20390;-71
2023/10/29 03:23:09;;;;;;;;;;;;;;;12.16;100.00;98750.44;4974712;28;20013;-71
2023/10/29 03:26:13;;;;;;;;;;;;;;;12.12;100.00;98728.06;4974667;28;19929;-71
2023/10/29 03:29:15;;;;;;;;;;;;;;;12.17;100.00;98733.75;4962747;28;19977;-71
2023/10/29 03:32:18;;;;;;;;;;;;;;;12.16;100.00;98724.25;4974912;28;19926;-71
2023/10/29 03:35:21;;;;;;;;;;;;;;;12.12;100.00;98741.16;4974571;28;19925;-71
2023/10/29 03:38:24;;;;;;;;;;;;;;;12.09;100.00;98731.81;4962506;28;19925;-71
2023/10/29 03:41:27;;;;;;;;;;;;;;;12.17;100.00;98736.38;4974841;28;19925;-71
2023/10/29 03:44:31;;;;;;;;;;;;;;;12.28;100.00;98732.78;4974518;28;20060;-71
2023/10/29 03:47:34;;;;;;;;;;;;;;;12.27;100.00;98721.50;4974365;28;20020;-71
2023/10/29 03:50:37;;;;;;;;;;;;;;;12.28;100.00;98736.28;4962495;28;19924;-71
2023/10/29 03:53:40;;;;;;;;;;;;;;;12.22;100.00;98734.19;4962518;28;19929;-71
2023/10/29 03:56:43;;;;;;;;;;;;;;;12.19;100.00;98729.22;4974704;28;19929;-71
2023/10/29 03:59:46;;;;;;;;;;;;;;;12.15;100.00;98717.31;4974399;28;19924;-71
2023/10/29 04:02:49;;;;;;;;;;;;;;;11.90;100.00;98720.41;4974136;28;19934;-71
2023/10/29 04:05:52;;;;;;;;;;;;;;;11.97;100.00;98716.31;4962290;28;19930;-70
2023/10/29 04:08:55;;;;;;;;;;;;;;;12.23;100.00;98700.94;4974274;28;19928;-70
2023/10/29 04:11:59;;;;;;;;;;;;;;;12.39;100.00;98716.16;4974302;28;20286;-70
2023/10/29 04:15:04;;;;;;;;;;;;;;;12.45;100.00;98718.22;4974198;28;19988;-70
2023/10/29 04:18:07;;;;;;;;;;;;;;;12.26;100.00;98696.25;4974207;28;19925;-71
2023/10/29 04:21:10;;;;;;;;;;;;;;;12.46;100.00;98698.91;4977589;28;19928;-70
2023/10/29 04:24:13;;;;;;;;;;;;;;;12.31;100.00;98720.25;4977923;28;19925;-70
2023/10/29 04:27:16;;;;;;;;;;;;;;;12.22;100.00;98713.22;4977801;28;19933;-71
2023/10/29 04:30:20;;;;;;;;;;;;;;;12.57;96.36;98735.47;4978091;28;20449;-70
2023/10/29 04:33:23;;;;;;;;;;;;;;;12.67;96.70;98732.88;4977764;28;19991;-70
2023/10/29 04:36:26;;;;;;;;;;;;;;;12.80;94.33;98734.25;4977615;28;19925;-70
2023/10/29 04:39:29;;;;;;;;;;;;;;;12.72;95.98;98715.75;4977640;28;19981;-70
2023/10/29 04:42:33;;;;;;;;;;;;;;;12.82;94.13;98726.22;4977551;28;20077;-70
2023/10/29 04:45:36;;;;;;;;;;;;;;;12.93;94.27;98738.41;4977706;28;20341;-71
2023/10/29 04:48:39;;;;;;;;;;;;;;;12.90;93.25;98749.16;4977511;28;20297;-71
2023/10/29 04:51:42;;;;;;;;;;;;;;;13.09;91.70;98728.16;4977383;28;19925;-71
2023/10/29 04:54:45;;;;;;;;;;;;;;;13.09;92.12;98732.59;4977379;28;19972;-71
2023/10/29 04:57:48;;;;;;;;;;;;;;;13.08;92.89;98723.88;4977261;28;20015;-71
2023/10/29 05:00:51;;;;;;;;;;;;;;;13.05;93.69;98692.69;4977243;28;19969;-71
2023/10/29 05:03:54;;;;;;;;;;;;;;;13.08;93.05;98689.78;4977098;28;19925;-71
2023/10/29 05:06:57;;;;;;;;;;;;;;;13.09;93.90;98707.16;4976969;28;19945;-70
2023/10/29 05:10:00;;;;;;;;;;;;;;;13.09;93.85;98694.03;4976797;28;20016;-70
2023/10/29 05:13:04;;;;;;;;;;;;;;;13.10;93.77;98695.69;4976966;28;19949;-70
2023/10/29 05:16:07;;;;;;;;;;;;;;;13.08;93.81;98709.91;4976999;28;19989;-71
2023/10/29 05:19:10;;;;;;;;;;;;;;;13.14;93.32;98720.69;4976948;28;19925;-70
2023/10/29 05:22:13;;;;;;;;;;;;;;;13.13;94.73;98710.34;4972173;28;19945;-71
2023/10/29 05:25:16;;;;;;;;;;;;;;;13.00;97.21;98729.00;4940673;29;19950;-70
2023/10/29 05:28:19;;;;;;;;;;;;;;;12.93;97.92;98722.66;4934782;29;19928;-72
2023/10/29 05:31:23;;;;;;;;;;;;;;;13.04;94.24;98735.59;4938012;29;19925;-76
2023/10/29 05:34:26;;;;;;;;;;;;;;;13.12;94.35;98738.38;4938172;29;19985;-71
2023/10/29 05:37:29;;;;;;;;;;;;;;;13.14;93.37;98732.97;4948895;29;19925;-70
2023/10/29 05:40:32;;;;;;;;;;;;;;;13.15;94.01;98740.72;4957205;29;19926;-70
2023/10/29 05:43:36;;;;;;;;;;;;;;;13.18;93.31;98700.25;4952808;29;19924;-70
2023/10/29 05:46:40;;;;;;;;;;;;;;;13.19;94.65;98697.47;4942667;29;20695;-71
2023/10/29 05:49:42;;;;;;;;;;;;;;;13.15;95.53;98701.34;4956878;29;19925;-71
2023/10/29 05:52:46;;;;;;;;;;;;;;;13.08;95.96;98689.78;4956924;29;20362;-71
2023/10/29 05:55:53;;;;;;;;;;;;;;;13.10;97.01;98614.34;4956892;29;20386;-71
2023/10/29 05:58:56;;;;;;;;;;;;;;;13.07;95.36;98588.41;4956864;29;19973;-71
2023/10/29 06:02:00;;;;;;;;;;;;;;;13.01;97.54;98663.25;4944368;29;19981;-72
2023/10/29 06:05:03;;;;;;;;;;;;;;;13.00;96.15;98687.00;4925424;29;19930;-72
2023/10/29 06:08:07;;;;;;;;;;;;;;;13.02;96.07;98691.16;4937010;29;20430;-71
2023/10/29 06:11:10;;;;;;;;;;;;;;;13.05;94.96;98705.81;4937360;29;20331;-72
2023/10/29 06:14:13;;;;;;;;;;;;;;;12.97;95.16;98700.41;4937374;29;19926;-72
2023/10/29 06:17:16;;;;;;;;;;;;;;;12.99;94.17;98701.94;4937251;29;19930;-72
2023/10/29 06:20:22;;;;;;;;;;;;;;;13.06;95.66;98715.31;4937301;29;20418;-72
2023/10/29 06:23:27;;;;;;;;;;;;;;;12.87;97.11;98707.47;4937235;29;19965;-72
2023/10/29 06:26:31;;;;;;;;;;;;;;;12.91;99.30;98707.03;4937203;29;19929;-72
2023/10/29 06:29:36;;;;;;;;;;;;;;;12.75;100.00;98725.13;4936464;29;19947;-72
2023/10/29 06:32:40;;;;;;;;;;;;;;;12.78;100.00;98717.81;4935844;29;19942;-72
2023/10/29 06:35:43;;;;;;;;;;;;;;;12.56;100.00;98752.16;4936363;29;20394;-71
2023/10/29 06:38:47;;;;;;;;;;;;;;;12.58;100.00;98745.00;4936123;29;19974;-71
2023/10/29 06:41:50;;;;;;;;;;;;;;;12.63;100.00;98755.88;4935691;29;20291;-71
2023/10/29 06:44:55;;;;;;;;;;;;;;;12.74;100.00;98755.78;4935244;29;20678;-71
2023/10/29 06:47:58;;;;;;;;;;;;;;;12.75;100.00;98767.09;4935970;29;19990;-71
2023/10/29 06:51:01;;;;;;;;;;;;;;;12.64;100.00;98781.16;4935102;29;20046;-70
2023/10/29 06:54:04;;;;;;;;;;;;;;;12.67;100.00;98794.00;4935698;29;19941;-71
2023/10/29 06:57:08;;;;;;;;;;;;;;;12.69;100.00;98796.47;4935697;29;19966;-70
2023/10/29 07:00:11;;;;;;;;;;;;;;;12.59;100.00;98804.34;4935790;29;19941;-74
2023/10/29 07:03:15;;;;;;;;;;;;;;;12.62;100.00;98803.25;4935563;29;19973;-69
2023/10/29 07:06:17;;;;;;;;;;;;;;;12.73;97.83;98800.47;4935433;29;20351;-70
2023/10/29 07:09:20;;;;;;;;;;;;;;;12.87;98.54;98791.41;4935536;29;20274;-71
2023/10/29 07:12:23;;;;;;;;;;;;;;;12.94;96.98;98805.63;4935542;29;19926;-70
2023/10/29 07:15:27;;;;;;;;;;;;;;;12.95;100.00;98812.50;4933993;29;19947;-71
2023/10/29 07:18:30;;;;;;;;;;;;;;;12.92;100.00;98811.03;4934564;29;19929;-71
2023/10/29 07:21:34;;;;;;;;;;;;;;;12.91;98.37;98813.75;4934284;29;19961;-73
2023/10/29 07:24:37;;;;;;;;;;;;;;;12.94;96.48;98798.56;4934614;29;19940;-70
2023/10/29 07:27:41;;;;;;;;;;;;;;;13.08;95.13;98781.63;4934322;29;19929;-69
2023/10/29 07:30:44;;;;;;;;;;;;;;;13.11;96.07;98772.63;4935356;29;19977;-69
2023/10/29 07:33:47;;;;;;;;;;;;;;;13.07;98.75;98766.00;4935138;29;19976;-69
2023/10/29 07:36:51;;;;;;;;;;;;;;;13.16;98.28;98754.66;4935203;29;19981;-70
2023/10/29 07:39:54;;;;;;;;;;;;;;;12.98;100.00;98716.00;4935149;29;19926;-69
2023/10/29 07:42:57;;;;;;;;;;;;;;;13.15;97.80;98705.78;4935097;29;19969;-70
2023/10/29 07:46:03;;;;;;;;;;;;;;;13.14;98.51;98767.91;4935335;29;20415;-69
2023/10/29 07:49:07;;;;;;;;;;;;;;;13.24;100.00;98783.66;4934950;29;19926;-70
2023/10/29 07:52:11;;;;;;;;;;;;;;;13.27;99.98;98783.41;4935133;29;19970;-71
2023/10/29 07:55:14;;;;;;;;;;;;;;;13.18;100.00;98798.19;4937869;29;20358;-70
2023/10/29 07:58:17;;;;;;;;;;;;;;;13.09;100.00;98820.00;4927198;29;20394;-71
2023/10/29 08:01:20;;;;;;;;;;;;;;;13.13;100.00;98837.13;4938757;29;19929;-69
2023/10/29 08:04:25;;;;;;;;;;;;;;;13.17;100.00;98835.88;4938844;29;20034;-70
2023/10/29 08:07:29;;;;;;;;;;;;;;;13.25;100.00;98843.91;4938656;29;20299;-70
2023/10/29 08:10:32;;;;;;;;;;;;;;;13.16;100.00;98841.25;4938483;29;20290;-72
2023/10/29 08:13:36;;;;;;;;;;;;;;;13.38;100.00;98832.31;4938522;29;19973;-71
2023/10/29 08:16:43;;;;;;;;;;;;;;;13.47;100.00;98834.13;4938266;29;19929;-73
2023/10/29 08:19:46;;;;;;;;;;;;;;;13.53;100.00;98833.56;4936789;29;19953;-70
2023/10/29 08:22:50;;;;;;;;;;;;;;;13.44;100.00;98826.50;4936663;29;19981;-72
2023/10/29 08:25:54;;;;;;;;;;;;;;;13.52;100.00;98834.50;4936758;29;19978;-72
2023/10/29 08:28:58;;;;;;;;;;;;;;;13.53;100.00;98841.44;4937977;29;20390;-75
2023/10/29 08:32:01;;;;;;;;;;;;;;;13.60;100.00;98837.28;4938490;29;19990;-72
2023/10/29 08:35:08;;;;;;;;;;;;;;;13.65;100.00;98835.03;4938346;29;19974;-72
2023/10/29 08:38:11;;;;;;;;;;;;;;;13.73;97.99;98843.03;4938259;29;19925;-73
2023/10/29 08:41:17;;;;;;;;;;;;;;;13.79;96.61;98835.59;4938604;29;20332;-72
2023/10/29 08:44:20;;;;;;;;;;;;;;;13.97;96.94;98847.00;4938423;29;20003;-73
2023/10/29 08:47:24;;;;;;;;;;;;;;;13.93;98.75;98848.25;4938096;29;19930;-73
2023/10/29 08:50:29;;;;;;;;;;;;;;;14.00;100.00;98838.81;4950783;28;19925;-73
2023/10/29 08:53:33;;;;;;;;;;;;;;;14.02;99.99;98842.16;4965670;28;19940;-72
2023/10/29 08:56:37;;;;;;;;;;;;;;;13.96;100.00;98859.31;4963218;28;20066;-72
2023/10/29 08:59:42;;;;;;;;;;;;;;;13.90;100.00;98861.66;4963877;28;19925;-73
2023/10/29 09:02:46;;;;;;;;;;;;;;;13.81;100.00;98871.22;4962974;28;20314;-73
2023/10/29 09:05:59;;;;;;;;;;;;;;;13.82;96.24;98879.97;4955385;28;19994;-73
2023/10/29 09:09:03;;;;;;;;;;;;;;;13.76;96.69;98878.72;4956423;28;19945;-72
2023/10/29 09:12:06;;;;;;;;;;;;;;;13.91;92.46;98884.34;4956684;29;19987;-72
2023/10/29 09:15:10;;;;;;;;;;;;;;;14.12;95.89;98905.19;4956924;29;20021;-71
2023/10/29 09:18:13;;;;;;;;;;;;;;;14.10;97.28;98909.75;4956519;29;19924;-71
2023/10/29 09:21:16;;;;;;;;;;;;;;;14.07;95.69;98913.50;4956443;29;19933;-71
2023/10/29 09:24:19;;;;;;;;;;;;;;;14.12;93.21;98910.44;4963488;28;19941;-72
2023/10/29 09:27:22;;;;;;;;;;;;;;;14.10;92.14;98913.22;4975820;28;19929;-71
2023/10/29 09:30:26;;;;;;;;;;;;;;;14.18;90.86;98904.63;4975375;28;19926;-70
2023/10/29 09:33:29;;;;;;;;;;;;;;;14.18;92.11;98881.78;4974215;28;19941;-71
2023/10/29 09:36:32;;;;;;;;;;;;;;;14.34;91.12;98894.31;4960376;28;19925;-70
2023/10/29 09:39:35;;;;;;;;;;;;;;;14.34;89.89;98896.97;4974921;28;19981;-72
2023/10/29 09:42:43;;;;;;;;;;;;;;;14.22;89.93;98894.66;4974337;28;19925;-73
2023/10/29 09:45:47;;;;;;;;;;;;;;;14.30;89.02;98907.91;4975070;28;20085;-72
2023/10/29 09:48:51;;;;;;;;;;;;;;;14.36;87.19;98896.84;4962095;28;19989;-73
2023/10/29 09:51:54;;;;;;;;;;;;;;;14.33;87.52;98882.16;4961661;28;19934;-74
2023/10/29 09:54:58;;;;;;;;;;;;;;;14.29;87.43;98880.78;4970153;28;19929;-72
2023/10/29 09:58:03;;;;;;;;;;;;;;;14.36;85.86;98891.56;4975222;28;20024;-70
2023/10/29 10:01:06;;;;;;;;;;;;;;;14.38;88.87;98906.22;4975083;28;20433;-71
2023/10/29 10:04:09;;;;;;;;;;;;;;;14.31;86.79;98905.13;4975105;28;19925;-70
2023/10/29 10:07:13;;;;;;;;;;;;;;;14.25;85.56;98908.34;4965691;28;19989;-70
2023/10/29 10:10:16;;;;;;;;;;;;;;;14.36;87.03;98908.16;4961916;28;20014;-70
2023/10/29 10:13:34;;;;;;;;;;;;;;;14.32;87.45;98916.47;4963456;28;20042;-70
2023/10/29 10:16:37;;;;;;;;;;;;;;;14.37;85.99;98909.81;4962506;28;20349;-68
2023/10/29 10:19:45;;;;;;;;;;;;;;;14.49;86.47;98912.28;4963146;28;19925;-69
2023/10/29 10:22:55;;;;;;;;;;;;;;;14.36;84.64;98900.28;4961133;28;19973;-69
2023/10/29 10:25:59;;;;;;;;;;;;;;;14.30;84.97;98914.00;4960165;28;19970;-69
2023/10/29 10:29:07;;;;;;;;;;;;;;;14.27;85.16;98905.56;4959879;28;20427;-71
2023/10/29 10:32:11;;;;;;;;;;;;;;;14.21;85.90;98896.44;4955714;29;19924;-70
2023/10/29 10:35:14;;;;;;;;;;;;;;;14.27;85.30;98876.66;4955173;29;19929;-69
2023/10/29 10:38:22;;;;;;;;;;;;;;;14.21;87.62;98867.53;4943410;29;19965;-69
2023/10/29 10:41:37;;;;;;;;;;;;;;;14.30;87.10;98858.78;4955266;29;20469;-79
2023/10/29 10:44:42;;;;;;;;;;;;;;;14.23;85.35;98870.00;4949715;29;20401;-71
2023/10/29 10:47:45;;;;;;;;;;;;;;;14.33;88.17;98881.34;4955018;29;19977;-70
2023/10/29 10:50:49;;;;;;;;;;;;;;;14.12;89.41;98879.72;4956660;28;19999;-71
2023/10/29 10:53:52;;;;;;;;;;;;;;;14.21;87.69;98882.50;4974561;28;20340;-72
2023/10/29 10:56:56;;;;;;;;;;;;;;;14.00;86.96;98870.34;4974107;28;19924;-72
2023/10/29 11:00:05;;;;;;;;;;;;;;;14.08;86.15;98877.53;4974291;28;19925;-72
2023/10/29 11:03:09;;;;;;;;;;;;;;;14.02;88.41;98878.13;4974165;28;19925;-72
2023/10/29 11:06:13;;;;;;;;;;;;;;;14.02;91.94;98881.56;4962347;28;19980;-72
2023/10/29 11:09:19;;;;;;;;;;;;;;;13.93;95.51;98883.22;4974186;28;19933;-71
2023/10/29 11:12:22;;;;;;;;;;;;;;;13.71;93.40;98876.50;4972860;28;19929;-71
2023/10/29 11:15:25;;;;;;;;;;;;;;;13.85;97.54;98890.19;4974110;28;19946;-72
2023/10/29 11:18:31;;;;;;;;;;;;;;;13.86;99.00;98912.84;4973873;28;20004;-71
2023/10/29 11:27:48;;;;;;;;;;;;;;;13.42;98.31;98867.81;4872766;26;20297;-70
2023/10/29 11:31:10;;;;;;;;;;;;;;;13.41;99.13;98871.41;4973428;28;20344;-68
2023/10/29 11:34:16;;;;;;;;;;;;;;;13.31;100.00;98857.47;4973235;28;19992;-69
2023/10/29 11:37:40;;;;;;;;;;;;;;;13.41;100.00;98832.88;4973200;28;19925;-69
2023/10/29 11:40:43;;;;;;;;;;;;;;;13.77;100.00;98809.44;4973140;28;19925;-69
2023/10/29 11:44:06;;;;;;;;;;;;;;;13.85;99.85;98820.06;4973194;28;19924;-68
2023/10/29 11:47:09;;;;;;;;;;;;;;;13.96;100.00;98808.56;4972675;28;19928;-69
2023/10/29 11:50:12;;;;;;;;;;;;;;;13.86;100.00;98844.53;4972930;28;20458;-69
2023/10/29 11:53:25;;;;;;;;;;;;;;;13.70;100.00;98864.34;4972755;28;19945;-69
2023/10/29 11:56:32;;;;;;;;;;;;;;;13.75;100.00;98855.19;4972727;28;20314;-69
2023/10/29 11:59:54;;;;;;;;;;;;;;;13.83;100.00;98850.91;4973071;28;19964;-69
2023/10/29 12:02:58;;;;;;;;;;;;;;;13.83;100.00;98863.22;4972556;28;20391;-69
2023/10/29 12:06:01;;;;;;;;;;;;;;;14.08;100.00;98862.59;4972710;28;19930;-71
2023/10/29 12:09:21;;;;;;;;;;;;;;;14.15;100.00;98863.69;4972551;28;19972;-70
2023/10/29 12:12:24;;;;;;;;;;;;;;;14.39;100.00;98870.25;4972697;28;19925;-70
2023/10/29 12:15:28;;;;;;;;;;;;;;;14.40;100.00;98892.94;4973175;28;19965;-71
2023/10/29 12:18:31;;;;;;;;;;;;;;;14.41;100.00;98895.41;4972843;28;19929;-71
2023/10/29 12:21:35;;;;;;;;;;;;;;;14.38;100.00;98895.69;4972771;28;20049;-72
2023/10/29 12:24:38;;;;;;;;;;;;;;;14.29;100.00;98874.69;4972603;28;20396;-72
2023/10/29 12:27:44;;;;;;;;;;;;;;;14.32;100.00;98877.03;4952960;29;19949;-71
2023/10/29 12:30:49;;;;;;;;;;;;;;;14.36;100.00;98870.53;4953157;29;20010;-71
2023/10/29 12:33:58;;;;;;;;;;;;;;;14.31;100.00;98867.50;4953349;29;19941;-70
2023/10/29 12:37:01;;;;;;;;;;;;;;;14.17;100.00;98858.28;4953639;29;19929;-70
2023/10/29 12:40:05;;;;;;;;;;;;;;;14.21;98.73;98849.13;4953501;28;19933;-70
2023/10/29 12:43:08;;;;;;;;;;;;;;;14.26;96.69;98839.00;4956767;29;20343;-70
2023/10/29 12:46:13;;;;;;;;;;;;;;;14.27;98.40;98848.56;4956444;29;19933;-69
2023/10/29 12:49:25;;;;;;;;;;;;;;;14.71;97.53;98848.81;4956931;29;19929;-69
2023/10/29 12:52:28;;;;;;;;;;;;;;;14.81;96.73;98856.63;4956480;29;19965;-70
2023/10/29 12:55:31;;;;;;;;;;;;;;;14.64;95.40;98874.88;4956399;29;19962;-67
2023/10/29 12:58:34;;;;;;;;;;;;;;;14.79;92.59;98871.72;4956247;29;19925;-66
2023/10/29 13:01:38;;;;;;;;;;;;;;;14.84;94.03;98874.75;4955719;29;19973;-69
2023/10/29 13:04:41;;;;;;;;;;;;;;;14.54;94.95;98858.28;4953732;29;19937;-69
2023/10/29 13:07:44;;;;;;;;;;;;;;;14.37;92.88;98846.72;4953623;29;20073;-69
2023/10/29 13:10:48;;;;;;;;;;;;;;;14.32;93.56;98850.75;4955704;29;19993;-69
2023/10/29 13:13:51;;;;;;;;;;;;;;;14.42;95.05;98843.63;4954028;29;19969;-69
2023/10/29 13:16:54;;;;;;;;;;;;;;;14.81;91.81;98828.50;4954665;29;19928;-70
2023/10/29 13:20:05;;;;;;;;;;;;;;;14.97;90.50;98814.69;4954995;29;19929;-70
2023/10/29 13:23:10;;;;;;;;;;;;;;;14.84;93.30;98812.44;4954493;29;19926;-69
2023/10/29 13:26:16;;;;;;;;;;;;;;;14.79;93.67;98804.16;4955201;29;19930;-70
2023/10/29 13:29:20;;;;;;;;;;;;;;;14.93;91.14;98805.41;4955461;29;19985;-70
2023/10/29 13:32:24;;;;;;;;;;;;;;;14.95;92.77;98787.69;4953156;29;20405;-69
2023/10/29 13:35:27;;;;;;;;;;;;;;;14.75;90.17;98783.56;4953303;29;19929;-69
2023/10/29 13:38:31;;;;;;;;;;;;;;;14.71;90.54;98792.69;4953998;29;19929;-69
2023/10/29 13:41:34;;;;;;;;;;;;;;;14.80;89.91;98799.69;4954223;29;20266;-69
2023/10/29 13:44:39;;;;;;;;;;;;;;;14.93;90.05;98787.00;4954847;29;19929;-70
2023/10/29 13:47:42;;;;;;;;;;;;;;;14.64;89.71;98793.31;4941390;29;19972;-70
2023/10/29 13:50:48;;;;;;;;;;;;;;;14.67;91.51;98807.97;4951948;28;20262;-70
2023/10/29 13:53:53;;;;;;;;;;;;;;;14.95;89.21;98813.19;4950950;29;19929;-70
2023/10/29 13:56:56;;;;;;;;;;;;;;;14.72;88.52;98818.06;4954181;29;19926;-71
2023/10/29 14:00:00;;;;;;;;;;;;;;;14.71;90.23;98845.31;4954332;29;19973;-71
2023/10/29 14:03:03;;;;;;;;;;;;;;;14.85;89.29;98855.34;4955849;29;20061;-69
2023/10/29 14:06:07;;;;;;;;;;;;;;;14.76;88.89;98856.25;4955672;29;20089;-69
2023/10/29 14:09:11;;;;;;;;;;;;;;;14.59;89.60;98871.00;4955222;29;20018;-69
2023/10/29 14:12:15;;;;;;;;;;;;;;;14.43;89.97;98856.66;4955319;29;19926;-70
2023/10/29 14:15:19;;;;;;;;;;;;;;;14.41;89.52;98855.97;4955236;29;20009;-70
2023/10/29 14:18:23;;;;;;;;;;;;;;;14.35;89.52;98834.69;4955139;29;20032;-72
2023/10/29 14:21:26;;;;;;;;;;;;;;;14.28;89.76;98825.72;4955061;29;20338;-71
2023/10/29 14:24:30;;;;;;;;;;;;;;;14.21;89.97;98836.00;4955167;29;19973;-71
2023/10/29 14:27:33;;;;;;;;;;;;;;;14.16;90.24;98817.19;4954853;29;20024;-72
2023/10/29 14:30:36;;;;;;;;;;;;;;;13.96;91.73;98798.03;4954440;29;19924;-69
2023/10/29 14:33:40;;;;;;;;;;;;;;;13.88;92.38;98788.25;4953452;29;19989;-71
2023/10/29 14:36:43;;;;;;;;;;;;;;;14.03;92.56;98785.97;4954017;29;19926;-71
2023/10/29 14:39:47;;;;;;;;;;;;;;;13.88;96.48;98804.03;4953679;29;19926;-69
2023/10/29 14:42:51;;;;;;;;;;;;;;;13.72;97.71;98809.06;4953969;29;19930;-71
2023/10/29 14:45:54;;;;;;;;;;;;;;;13.63;96.69;98794.97;4953739;29;20020;-71
2023/10/29 14:48:58;;;;;;;;;;;;;;;13.66;96.03;98784.19;4952431;29;19925;-71
2023/10/29 14:52:01;;;;;;;;;;;;;;;13.64;97.98;98780.84;4955238;29;20400;-72
2023/10/29 14:55:09;;;;;;;;;;;;;;;13.55;98.55;98776.44;4955095;29;20373;-73
2023/10/29 14:58:15;;;;;;;;;;;;;;;13.73;100.00;98780.00;4954258;29;20289;-72
2023/10/29 15:01:19;;;;;;;;;;;;;;;13.70;99.05;98782.09;4954863;29;19925;-72
2023/10/29 15:04:22;;;;;;;;;;;;;;;13.75;99.18;98827.13;4953999;28;19941;-72
2023/10/29 15:07:26;;;;;;;;;;;;;;;13.61;100.00;98802.16;4954502;29;19969;-72
2023/10/29 15:10:29;;;;;;;;;;;;;;;13.50;100.00;98810.19;4954226;29;19972;-72
2023/10/29 15:13:39;;;;;;;;;;;;;;;13.73;100.00;98834.34;4954726;29;19972;-70
2023/10/29 15:16:42;;;;;;;;;;;;;;;13.80;100.00;98831.97;4953974;29;20371;-71
2023/10/29 15:19:54;;;;;;;;;;;;;;;13.63;100.00;98846.66;4948622;29;19957;-71
2023/10/29 15:22:57;;;;;;;;;;;;;;;13.59;100.00;98856.63;4936196;29;19926;-70
2023/10/29 15:26:00;;;;;;;;;;;;;;;13.35;99.78;98846.53;4936751;29;20090;-70
2023/10/29 15:29:03;;;;;;;;;;;;;;;13.39;97.45;98831.34;4936277;29;19989;-70
2023/10/29 15:32:06;;;;;;;;;;;;;;;13.45;98.04;98830.78;4940154;29;19929;-70
2023/10/29 15:35:10;;;;;;;;;;;;;;;13.42;97.22;98828.44;4937756;29;20024;-69
2023/10/29 15:38:13;;;;;;;;;;;;;;;13.41;100.00;98850.41;4936169;29;19966;-70
2023/10/29 15:41:18;;;;;;;;;;;;;;;13.22;100.00;98865.16;4935108;29;19998;-70
2023/10/29 15:44:21;;;;;;;;;;;;;;;13.18;99.42;98881.34;4935407;29;19946;-69
2023/10/29 15:47:26;;;;;;;;;;;;;;;13.22;96.18;98886.16;4935415;29;19930;-69
2023/10/29 15:50:29;;;;;;;;;;;;;;;13.37;94.38;98877.88;4935980;29;20283;-69
2023/10/29 15:53:34;;;;;;;;;;;;;;;13.22;95.52;98887.97;4923852;29;19925;-69
2023/10/29 15:56:37;;;;;;;;;;;;;;;13.14;96.79;98883.38;4934916;29;19968;-69
2023/10/29 15:59:42;;;;;;;;;;;;;;;13.12;96.41;98880.06;4935906;29;19926;-68